sensor_id;sensor_type;location;lat;lon;timestamp;P1;durP1;ratioP1;P2;durP2;ratioP2
43990;SDS011;29654;50.784;20.604;2023-01-13T00:02:03;14.65;;;10.77;;
43990;SDS011;29654;50.784;20.604;2023-01-13T00:07:07;13.75;;;10.77;;
43990;SDS011;29654;50.784;20.604;2023-01-13T00:12:09;15.40;;;10.10;;
43990;SDS011;29654;50.784;20.604;2023-01-13T00:17:12;13.85;;;10.30;;
43990;SDS011;29654;50.784;20.604;2023-01-13T00:22:16;15.35;;;10.73;;
43990;SDS011;29654;50.784;20.604;2023-01-13T00:27:18;16.13;;;10.65;;
43990;SDS011;29654;50.784;20.604;2023-01-13T00:32:24;16.58;;;10.55;;
43990;SDS011;29654;50.784;20.604;2023-01-13T00:37:28;15.75;;;10.90;;
43990;SDS011;29654;50.784;20.604;2023-01-13T00:42:31;14.90;;;10.27;;
43990;SDS011;29654;50.784;20.604;2023-01-13T00:47:51;14.05;;;10.05;;
43990;SDS011;29654;50.784;20.604;2023-01-13T00:52:55;13.32;;;10.00;;
43990;SDS011;29654;50.784;20.604;2023-01-13T00:58:00;13.80;;;8.75;;
43990;SDS011;29654;50.784;20.604;2023-01-13T01:03:03;12.52;;;7.90;;
43990;SDS011;29654;50.784;20.604;2023-01-13T01:08:13;10.35;;;7.50;;
43990;SDS011;29654;50.784;20.604;2023-01-13T01:13:15;10.35;;;6.80;;
43990;SDS011;29654;50.784;20.604;2023-01-13T01:18:18;10.90;;;8.07;;
43990;SDS011;29654;50.784;20.604;2023-01-13T01:23:22;10.15;;;7.30;;
43990;SDS011;29654;50.784;20.604;2023-01-13T01:28:25;10.02;;;7.72;;
43990;SDS011;29654;50.784;20.604;2023-01-13T01:33:27;10.75;;;6.90;;
43990;SDS011;29654;50.784;20.604;2023-01-13T01:38:31;12.23;;;7.13;;
43990;SDS011;29654;50.784;20.604;2023-01-13T01:43:50;10.07;;;7.03;;
43990;SDS011;29654;50.784;20.604;2023-01-13T01:49:04;9.73;;;7.00;;
43990;SDS011;29654;50.784;20.604;2023-01-13T01:54:14;8.57;;;6.63;;
43990;SDS011;29654;50.784;20.604;2023-01-13T01:59:21;11.35;;;6.97;;
43990;SDS011;29654;50.784;20.604;2023-01-13T02:04:30;8.13;;;5.38;;
43990;SDS011;29654;50.784;20.604;2023-01-13T02:09:39;11.68;;;7.32;;
43990;SDS011;29654;50.784;20.604;2023-01-13T02:14:42;8.40;;;6.50;;
43990;SDS011;29654;50.784;20.604;2023-01-13T02:25:54;8.80;;;6.85;;
43990;SDS011;29654;50.784;20.604;2023-01-13T02:31:24;10.55;;;6.80;;
43990;SDS011;29654;50.784;20.604;2023-01-13T02:36:46;9.30;;;6.38;;
43990;SDS011;29654;50.784;20.604;2023-01-13T02:41:55;9.10;;;5.90;;
43990;SDS011;29654;50.784;20.604;2023-01-13T02:47:25;8.30;;;5.70;;
43990;SDS011;29654;50.784;20.604;2023-01-13T02:52:30;9.52;;;5.70;;
43990;SDS011;29654;50.784;20.604;2023-01-13T02:57:37;6.82;;;5.60;;
43990;SDS011;29654;50.784;20.604;2023-01-13T03:02:43;7.07;;;5.20;;
43990;SDS011;29654;50.784;20.604;2023-01-13T03:13:19;8.75;;;5.50;;
43990;SDS011;29654;50.784;20.604;2023-01-13T03:19:08;4.55;;;4.15;;
43990;SDS011;29654;50.784;20.604;2023-01-13T03:24:20;6.25;;;4.45;;
43990;SDS011;29654;50.784;20.604;2023-01-13T03:29:31;6.32;;;4.55;;
43990;SDS011;29654;50.784;20.604;2023-01-13T03:34:41;7.18;;;4.93;;
43990;SDS011;29654;50.784;20.604;2023-01-13T03:39:49;5.55;;;4.53;;
43990;SDS011;29654;50.784;20.604;2023-01-13T03:44:59;4.10;;;3.70;;
43990;SDS011;29654;50.784;20.604;2023-01-13T03:50:12;5.72;;;4.07;;
43990;SDS011;29654;50.784;20.604;2023-01-13T03:55:20;3.78;;;3.40;;
43990;SDS011;29654;50.784;20.604;2023-01-13T04:00:28;4.70;;;3.83;;
43990;SDS011;29654;50.784;20.604;2023-01-13T04:05:50;4.20;;;3.80;;
43990;SDS011;29654;50.784;20.604;2023-01-13T04:11:02;4.40;;;3.80;;
43990;SDS011;29654;50.784;20.604;2023-01-13T04:16:08;5.95;;;4.00;;
43990;SDS011;29654;50.784;20.604;2023-01-13T04:21:13;3.85;;;3.53;;
43990;SDS011;29654;50.784;20.604;2023-01-13T04:26:16;3.80;;;3.40;;
43990;SDS011;29654;50.784;20.604;2023-01-13T04:31:19;5.28;;;3.70;;
43990;SDS011;29654;50.784;20.604;2023-01-13T04:36:23;4.78;;;3.70;;
43990;SDS011;29654;50.784;20.604;2023-01-13T04:41:26;4.57;;;3.38;;
43990;SDS011;29654;50.784;20.604;2023-01-13T04:46:50;4.13;;;3.67;;
43990;SDS011;29654;50.784;20.604;2023-01-13T04:51:54;3.88;;;3.50;;
43990;SDS011;29654;50.784;20.604;2023-01-13T04:56:56;4.22;;;3.75;;
43990;SDS011;29654;50.784;20.604;2023-01-13T05:01:59;3.83;;;3.35;;
43990;SDS011;29654;50.784;20.604;2023-01-13T05:07:03;5.28;;;3.47;;
43990;SDS011;29654;50.784;20.604;2023-01-13T05:12:06;4.95;;;3.42;;
43990;SDS011;29654;50.784;20.604;2023-01-13T05:17:27;4.60;;;3.42;;
43990;SDS011;29654;50.784;20.604;2023-01-13T05:22:31;4.38;;;3.40;;
43990;SDS011;29654;50.784;20.604;2023-01-13T05:27:52;4.40;;;3.70;;
43990;SDS011;29654;50.784;20.604;2023-01-13T05:32:56;3.40;;;3.10;;
43990;SDS011;29654;50.784;20.604;2023-01-13T05:38:01;4.45;;;3.55;;
43990;SDS011;29654;50.784;20.604;2023-01-13T05:43:04;4.90;;;3.40;;
43990;SDS011;29654;50.784;20.604;2023-01-13T05:48:24;4.65;;;3.50;;
43990;SDS011;29654;50.784;20.604;2023-01-13T05:53:30;4.32;;;3.45;;
43990;SDS011;29654;50.784;20.604;2023-01-13T05:58:34;3.72;;;3.15;;
43990;SDS011;29654;50.784;20.604;2023-01-13T06:03:37;4.93;;;3.88;;
43990;SDS011;29654;50.784;20.604;2023-01-13T06:08:41;4.57;;;3.60;;
43990;SDS011;29654;50.784;20.604;2023-01-13T06:13:43;4.13;;;3.42;;
43990;SDS011;29654;50.784;20.604;2023-01-13T06:18:46;5.72;;;3.60;;
43990;SDS011;29654;50.784;20.604;2023-01-13T06:23:50;4.57;;;3.10;;
43990;SDS011;29654;50.784;20.604;2023-01-13T06:28:53;5.05;;;3.40;;
43990;SDS011;29654;50.784;20.604;2023-01-13T06:33:57;3.45;;;2.88;;
43990;SDS011;29654;50.784;20.604;2023-01-13T06:39:04;4.47;;;3.05;;
43990;SDS011;29654;50.784;20.604;2023-01-13T06:44:09;2.80;;;2.53;;
43990;SDS011;29654;50.784;20.604;2023-01-13T06:49:12;4.80;;;3.00;;
43990;SDS011;29654;50.784;20.604;2023-01-13T06:54:16;2.75;;;2.53;;
43990;SDS011;29654;50.784;20.604;2023-01-13T06:59:19;3.00;;;2.65;;
43990;SDS011;29654;50.784;20.604;2023-01-13T07:04:21;3.40;;;3.10;;
43990;SDS011;29654;50.784;20.604;2023-01-13T07:09:26;4.45;;;3.17;;
43990;SDS011;29654;50.784;20.604;2023-01-13T07:14:28;4.72;;;2.60;;
43990;SDS011;29654;50.784;20.604;2023-01-13T07:19:48;2.90;;;2.65;;
43990;SDS011;29654;50.784;20.604;2023-01-13T07:24:53;3.33;;;2.90;;
43990;SDS011;29654;50.784;20.604;2023-01-13T07:29:56;5.55;;;2.97;;
43990;SDS011;29654;50.784;20.604;2023-01-13T07:34:58;3.97;;;3.15;;
43990;SDS011;29654;50.784;20.604;2023-01-13T07:40:07;3.05;;;2.70;;
43990;SDS011;29654;50.784;20.604;2023-01-13T07:45:11;4.30;;;2.85;;
43990;SDS011;29654;50.784;20.604;2023-01-13T07:50:15;3.65;;;2.28;;
43990;SDS011;29654;50.784;20.604;2023-01-13T07:55:20;4.38;;;2.53;;
43990;SDS011;29654;50.784;20.604;2023-01-13T08:00:23;2.70;;;2.30;;
43990;SDS011;29654;50.784;20.604;2023-01-13T08:05:25;5.18;;;2.75;;
43990;SDS011;29654;50.784;20.604;2023-01-13T08:10:33;3.20;;;2.67;;
43990;SDS011;29654;50.784;20.604;2023-01-13T08:15:36;3.88;;;2.53;;
43990;SDS011;29654;50.784;20.604;2023-01-13T08:20:39;4.80;;;2.78;;
43990;SDS011;29654;50.784;20.604;2023-01-13T08:25:43;3.97;;;2.60;;
43990;SDS011;29654;50.784;20.604;2023-01-13T08:30:46;4.53;;;2.75;;
43990;SDS011;29654;50.784;20.604;2023-01-13T08:35:49;3.67;;;2.45;;
43990;SDS011;29654;50.784;20.604;2023-01-13T08:40:54;2.63;;;2.40;;
43990;SDS011;29654;50.784;20.604;2023-01-13T08:45:58;4.57;;;2.60;;
43990;SDS011;29654;50.784;20.604;2023-01-13T08:51:04;3.30;;;2.58;;
43990;SDS011;29654;50.784;20.604;2023-01-13T08:56:10;5.15;;;2.67;;
43990;SDS011;29654;50.784;20.604;2023-01-13T09:01:14;5.10;;;2.75;;
43990;SDS011;29654;50.784;20.604;2023-01-13T09:06:22;3.97;;;2.80;;
43990;SDS011;29654;50.784;20.604;2023-01-13T09:11:27;3.92;;;3.03;;
43990;SDS011;29654;50.784;20.604;2023-01-13T09:16:50;3.17;;;2.60;;
43990;SDS011;29654;50.784;20.604;2023-01-13T09:21:53;5.80;;;2.67;;
43990;SDS011;29654;50.784;20.604;2023-01-13T09:26:58;6.80;;;2.75;;
43990;SDS011;29654;50.784;20.604;2023-01-13T09:32:00;3.28;;;2.75;;
43990;SDS011;29654;50.784;20.604;2023-01-13T09:37:04;6.50;;;2.88;;
43990;SDS011;29654;50.784;20.604;2023-01-13T09:42:12;5.82;;;3.08;;
43990;SDS011;29654;50.784;20.604;2023-01-13T09:47:42;3.55;;;2.88;;
43990;SDS011;29654;50.784;20.604;2023-01-13T09:52:51;3.78;;;3.08;;
43990;SDS011;29654;50.784;20.604;2023-01-13T09:57:56;3.72;;;3.03;;
43990;SDS011;29654;50.784;20.604;2023-01-13T10:03:04;4.65;;;3.10;;
43990;SDS011;29654;50.784;20.604;2023-01-13T10:08:21;5.30;;;3.67;;
43990;SDS011;29654;50.784;20.604;2023-01-13T10:13:30;4.43;;;3.33;;
43990;SDS011;29654;50.784;20.604;2023-01-13T10:18:36;4.28;;;3.38;;
43990;SDS011;29654;50.784;20.604;2023-01-13T10:23:50;5.70;;;3.55;;
43990;SDS011;29654;50.784;20.604;2023-01-13T10:29:01;4.88;;;3.20;;
43990;SDS011;29654;50.784;20.604;2023-01-13T10:34:04;4.25;;;3.05;;
43990;SDS011;29654;50.784;20.604;2023-01-13T10:39:07;4.88;;;3.80;;
43990;SDS011;29654;50.784;20.604;2023-01-13T10:44:17;5.22;;;3.60;;
43990;SDS011;29654;50.784;20.604;2023-01-13T10:49:24;3.70;;;3.30;;
43990;SDS011;29654;50.784;20.604;2023-01-13T10:54:33;3.60;;;3.30;;
43990;SDS011;29654;50.784;20.604;2023-01-13T10:59:38;4.70;;;3.40;;
43990;SDS011;29654;50.784;20.604;2023-01-13T11:04:41;4.88;;;3.53;;
43990;SDS011;29654;50.784;20.604;2023-01-13T11:10:05;4.65;;;3.70;;
43990;SDS011;29654;50.784;20.604;2023-01-13T11:15:21;5.38;;;4.07;;
43990;SDS011;29654;50.784;20.604;2023-01-13T11:20:29;4.47;;;3.75;;
43990;SDS011;29654;50.784;20.604;2023-01-13T11:25:37;4.78;;;3.78;;
43990;SDS011;29654;50.784;20.604;2023-01-13T11:30:46;5.78;;;3.55;;
43990;SDS011;29654;50.784;20.604;2023-01-13T11:36:01;4.32;;;3.58;;
43990;SDS011;29654;50.784;20.604;2023-01-13T11:41:12;5.35;;;3.35;;
43990;SDS011;29654;50.784;20.604;2023-01-13T11:46:26;4.65;;;3.88;;
43990;SDS011;29654;50.784;20.604;2023-01-13T11:51:32;5.20;;;4.45;;
43990;SDS011;29654;50.784;20.604;2023-01-13T11:56:44;5.15;;;4.07;;
43990;SDS011;29654;50.784;20.604;2023-01-13T12:02:20;4.65;;;3.83;;
43990;SDS011;29654;50.784;20.604;2023-01-13T12:07:41;6.45;;;4.13;;
43990;SDS011;29654;50.784;20.604;2023-01-13T12:12:52;4.57;;;3.90;;
43990;SDS011;29654;50.784;20.604;2023-01-13T12:18:17;5.10;;;4.60;;
43990;SDS011;29654;50.784;20.604;2023-01-13T12:24:04;5.07;;;4.38;;
43990;SDS011;29654;50.784;20.604;2023-01-13T12:29:15;4.60;;;4.18;;
43990;SDS011;29654;50.784;20.604;2023-01-13T12:34:32;6.50;;;4.20;;
43990;SDS011;29654;50.784;20.604;2023-01-13T12:39:54;5.35;;;4.35;;
43990;SDS011;29654;50.784;20.604;2023-01-13T12:45:06;6.10;;;4.78;;
43990;SDS011;29654;50.784;20.604;2023-01-13T12:50:39;5.10;;;4.60;;
43990;SDS011;29654;50.784;20.604;2023-01-13T12:55:43;5.30;;;4.80;;
43990;SDS011;29654;50.784;20.604;2023-01-13T13:00:52;5.45;;;4.88;;
43990;SDS011;29654;50.784;20.604;2023-01-13T13:11:34;6.25;;;4.70;;
43990;SDS011;29654;50.784;20.604;2023-01-13T13:17:22;6.60;;;4.97;;
43990;SDS011;29654;50.784;20.604;2023-01-13T13:22:43;5.78;;;5.00;;
43990;SDS011;29654;50.784;20.604;2023-01-13T13:27:55;6.10;;;4.88;;
43990;SDS011;29654;50.784;20.604;2023-01-13T13:33:13;5.47;;;4.95;;
43990;SDS011;29654;50.784;20.604;2023-01-13T13:38:36;5.45;;;4.45;;
43990;SDS011;29654;50.784;20.604;2023-01-13T13:44:14;6.50;;;5.00;;
43990;SDS011;29654;50.784;20.604;2023-01-13T13:49:41;6.38;;;4.63;;
43990;SDS011;29654;50.784;20.604;2023-01-13T13:54:47;7.68;;;4.90;;
43990;SDS011;29654;50.784;20.604;2023-01-13T13:59:52;6.10;;;4.53;;
43990;SDS011;29654;50.784;20.604;2023-01-13T14:05:06;5.97;;;4.60;;
43990;SDS011;29654;50.784;20.604;2023-01-13T14:10:21;5.40;;;4.80;;
43990;SDS011;29654;50.784;20.604;2023-01-13T14:15:32;5.25;;;4.50;;
43990;SDS011;29654;50.784;20.604;2023-01-13T14:20:38;5.15;;;4.65;;
43990;SDS011;29654;50.784;20.604;2023-01-13T14:25:46;5.85;;;4.70;;
43990;SDS011;29654;50.784;20.604;2023-01-13T14:30:52;4.60;;;3.80;;
43990;SDS011;29654;50.784;20.604;2023-01-13T14:36:03;5.53;;;4.68;;
43990;SDS011;29654;50.784;20.604;2023-01-13T14:41:18;5.40;;;4.25;;
43990;SDS011;29654;50.784;20.604;2023-01-13T14:46:26;6.25;;;4.90;;
43990;SDS011;29654;50.784;20.604;2023-01-13T14:51:38;5.88;;;5.13;;
43990;SDS011;29654;50.784;20.604;2023-01-13T14:56:44;6.90;;;4.82;;
43990;SDS011;29654;50.784;20.604;2023-01-13T15:01:51;6.78;;;5.68;;
43990;SDS011;29654;50.784;20.604;2023-01-13T15:06:54;7.50;;;5.72;;
43990;SDS011;29654;50.784;20.604;2023-01-13T15:12:00;6.90;;;5.85;;
43990;SDS011;29654;50.784;20.604;2023-01-13T15:17:18;7.82;;;5.97;;
43990;SDS011;29654;50.784;20.604;2023-01-13T15:22:21;8.98;;;6.53;;
43990;SDS011;29654;50.784;20.604;2023-01-13T15:27:25;8.57;;;6.22;;
43990;SDS011;29654;50.784;20.604;2023-01-13T15:32:28;7.85;;;6.63;;
43990;SDS011;29654;50.784;20.604;2023-01-13T15:37:31;6.95;;;5.80;;
43990;SDS011;29654;50.784;20.604;2023-01-13T15:42:35;8.02;;;7.05;;
43990;SDS011;29654;50.784;20.604;2023-01-13T15:47:55;10.05;;;7.13;;
43990;SDS011;29654;50.784;20.604;2023-01-13T15:52:59;10.15;;;7.40;;
43990;SDS011;29654;50.784;20.604;2023-01-13T15:58:04;12.65;;;7.40;;
43990;SDS011;29654;50.784;20.604;2023-01-13T16:03:08;9.27;;;7.03;;
43990;SDS011;29654;50.784;20.604;2023-01-13T16:08:13;9.18;;;6.53;;
43990;SDS011;29654;50.784;20.604;2023-01-13T16:13:18;8.23;;;6.80;;
43990;SDS011;29654;50.784;20.604;2023-01-13T16:18:21;8.10;;;6.63;;
43990;SDS011;29654;50.784;20.604;2023-01-13T16:23:24;8.55;;;6.45;;
43990;SDS011;29654;50.784;20.604;2023-01-13T16:28:28;8.02;;;6.50;;
43990;SDS011;29654;50.784;20.604;2023-01-13T16:33:34;8.18;;;6.82;;
43990;SDS011;29654;50.784;20.604;2023-01-13T16:38:37;9.93;;;7.40;;
43990;SDS011;29654;50.784;20.604;2023-01-13T16:43:41;10.73;;;7.28;;
43990;SDS011;29654;50.784;20.604;2023-01-13T16:48:44;9.68;;;6.63;;
43990;SDS011;29654;50.784;20.604;2023-01-13T16:53:47;8.40;;;6.90;;
43990;SDS011;29654;50.784;20.604;2023-01-13T16:58:53;9.45;;;6.93;;
43990;SDS011;29654;50.784;20.604;2023-01-13T17:03:57;8.65;;;6.85;;
43990;SDS011;29654;50.784;20.604;2023-01-13T17:09:01;11.05;;;7.85;;
43990;SDS011;29654;50.784;20.604;2023-01-13T17:14:07;10.23;;;8.27;;
43990;SDS011;29654;50.784;20.604;2023-01-13T17:19:10;9.32;;;7.47;;
43990;SDS011;29654;50.784;20.604;2023-01-13T17:24:13;9.13;;;7.18;;
43990;SDS011;29654;50.784;20.604;2023-01-13T17:29:17;11.52;;;8.27;;
43990;SDS011;29654;50.784;20.604;2023-01-13T17:34:22;11.15;;;8.75;;
43990;SDS011;29654;50.784;20.604;2023-01-13T17:39:25;9.20;;;7.63;;
43990;SDS011;29654;50.784;20.604;2023-01-13T17:44:29;9.27;;;7.40;;
43990;SDS011;29654;50.784;20.604;2023-01-13T17:49:31;12.70;;;8.02;;
43990;SDS011;29654;50.784;20.604;2023-01-13T17:54:34;11.55;;;8.40;;
43990;SDS011;29654;50.784;20.604;2023-01-13T17:59:38;10.63;;;7.75;;
43990;SDS011;29654;50.784;20.604;2023-01-13T18:04:41;10.55;;;8.32;;
43990;SDS011;29654;50.784;20.604;2023-01-13T18:09:44;10.13;;;7.47;;
43990;SDS011;29654;50.784;20.604;2023-01-13T18:14:48;10.25;;;7.07;;
43990;SDS011;29654;50.784;20.604;2023-01-13T18:19:51;10.52;;;7.07;;
43990;SDS011;29654;50.784;20.604;2023-01-13T18:25:11;7.78;;;6.55;;
43990;SDS011;29654;50.784;20.604;2023-01-13T18:30:32;8.52;;;6.45;;
43990;SDS011;29654;50.784;20.604;2023-01-13T18:35:36;8.30;;;6.32;;
43990;SDS011;29654;50.784;20.604;2023-01-13T18:40:41;8.98;;;7.00;;
43990;SDS011;29654;50.784;20.604;2023-01-13T18:45:47;7.65;;;6.63;;
43990;SDS011;29654;50.784;20.604;2023-01-13T18:50:51;9.57;;;7.25;;
43990;SDS011;29654;50.784;20.604;2023-01-13T18:55:54;8.57;;;7.05;;
43990;SDS011;29654;50.784;20.604;2023-01-13T19:01:00;8.25;;;7.07;;
43990;SDS011;29654;50.784;20.604;2023-01-13T19:06:04;12.60;;;9.02;;
43990;SDS011;29654;50.784;20.604;2023-01-13T19:11:11;9.20;;;7.97;;
43990;SDS011;29654;50.784;20.604;2023-01-13T19:16:16;11.38;;;8.25;;
43990;SDS011;29654;50.784;20.604;2023-01-13T19:21:20;9.98;;;7.20;;
43990;SDS011;29654;50.784;20.604;2023-01-13T19:26:23;7.95;;;5.82;;
43990;SDS011;29654;50.784;20.604;2023-01-13T19:31:27;9.15;;;6.40;;
43990;SDS011;29654;50.784;20.604;2023-01-13T19:36:29;6.88;;;6.18;;
43990;SDS011;29654;50.784;20.604;2023-01-13T19:41:32;8.88;;;6.47;;
43990;SDS011;29654;50.784;20.604;2023-01-13T19:46:53;7.22;;;6.15;;
43990;SDS011;29654;50.784;20.604;2023-01-13T19:51:56;9.00;;;7.25;;
43990;SDS011;29654;50.784;20.604;2023-01-13T19:56:59;6.80;;;6.00;;
43990;SDS011;29654;50.784;20.604;2023-01-13T20:02:03;7.45;;;5.72;;
43990;SDS011;29654;50.784;20.604;2023-01-13T20:07:09;7.50;;;5.38;;
43990;SDS011;29654;50.784;20.604;2023-01-13T20:12:13;6.63;;;5.70;;
43990;SDS011;29654;50.784;20.604;2023-01-13T20:17:19;6.43;;;5.35;;
43990;SDS011;29654;50.784;20.604;2023-01-13T20:22:22;7.18;;;5.18;;
43990;SDS011;29654;50.784;20.604;2023-01-13T20:27:25;7.88;;;5.15;;
43990;SDS011;29654;50.784;20.604;2023-01-13T20:32:29;5.85;;;5.15;;
43990;SDS011;29654;50.784;20.604;2023-01-13T20:37:32;6.93;;;5.03;;
43990;SDS011;29654;50.784;20.604;2023-01-13T20:42:34;5.88;;;4.97;;
43990;SDS011;29654;50.784;20.604;2023-01-13T20:47:45;7.05;;;4.97;;
43990;SDS011;29654;50.784;20.604;2023-01-13T20:52:48;7.28;;;5.50;;
43990;SDS011;29654;50.784;20.604;2023-01-13T20:57:51;5.38;;;4.75;;
43990;SDS011;29654;50.784;20.604;2023-01-13T21:02:55;7.00;;;5.43;;
43990;SDS011;29654;50.784;20.604;2023-01-13T21:07:59;6.10;;;5.32;;
43990;SDS011;29654;50.784;20.604;2023-01-13T21:13:02;6.63;;;5.38;;
43990;SDS011;29654;50.784;20.604;2023-01-13T21:18:24;6.93;;;5.45;;
43990;SDS011;29654;50.784;20.604;2023-01-13T21:23:45;7.75;;;5.45;;
43990;SDS011;29654;50.784;20.604;2023-01-13T21:28:54;5.65;;;5.10;;
43990;SDS011;29654;50.784;20.604;2023-01-13T21:34:03;6.22;;;5.22;;
43990;SDS011;29654;50.784;20.604;2023-01-13T21:39:08;8.52;;;5.75;;
43990;SDS011;29654;50.784;20.604;2023-01-13T21:44:15;7.40;;;6.63;;
43990;SDS011;29654;50.784;20.604;2023-01-13T21:49:40;7.85;;;6.13;;
43990;SDS011;29654;50.784;20.604;2023-01-13T21:54:45;7.20;;;6.25;;
43990;SDS011;29654;50.784;20.604;2023-01-13T22:00:07;6.47;;;5.65;;
43990;SDS011;29654;50.784;20.604;2023-01-13T22:05:13;9.30;;;6.85;;
43990;SDS011;29654;50.784;20.604;2023-01-13T22:10:18;6.72;;;6.03;;
43990;SDS011;29654;50.784;20.604;2023-01-13T22:15:24;7.93;;;6.68;;
43990;SDS011;29654;50.784;20.604;2023-01-13T22:20:30;7.72;;;5.72;;
43990;SDS011;29654;50.784;20.604;2023-01-13T22:25:34;8.90;;;7.25;;
43990;SDS011;29654;50.784;20.604;2023-01-13T22:30:37;8.63;;;6.88;;
43990;SDS011;29654;50.784;20.604;2023-01-13T22:35:42;9.68;;;6.88;;
43990;SDS011;29654;50.784;20.604;2023-01-13T22:40:53;9.05;;;7.45;;
43990;SDS011;29654;50.784;20.604;2023-01-13T22:45:57;9.38;;;8.25;;
43990;SDS011;29654;50.784;20.604;2023-01-13T22:51:08;8.25;;;7.25;;
43990;SDS011;29654;50.784;20.604;2023-01-13T22:56:14;9.02;;;7.43;;
43990;SDS011;29654;50.784;20.604;2023-01-13T23:01:19;9.57;;;7.47;;
43990;SDS011;29654;50.784;20.604;2023-01-13T23:06:24;7.38;;;6.47;;
43990;SDS011;29654;50.784;20.604;2023-01-13T23:11:30;9.05;;;7.78;;
43990;SDS011;29654;50.784;20.604;2023-01-13T23:16:35;9.73;;;7.22;;
43990;SDS011;29654;50.784;20.604;2023-01-13T23:21:42;8.38;;;7.38;;
43990;SDS011;29654;50.784;20.604;2023-01-13T23:26:45;8.95;;;6.93;;
43990;SDS011;29654;50.784;20.604;2023-01-13T23:31:49;8.25;;;7.03;;
43990;SDS011;29654;50.784;20.604;2023-01-13T23:36:55;7.70;;;6.90;;
43990;SDS011;29654;50.784;20.604;2023-01-13T23:41:59;8.40;;;7.57;;
43990;SDS011;29654;50.784;20.604;2023-01-13T23:47:03;10.23;;;7.80;;
43990;SDS011;29654;50.784;20.604;2023-01-13T23:52:08;8.50;;;7.40;;
43990;SDS011;29654;50.784;20.604;2023-01-13T23:57:11;10.32;;;8.18;;
